Kawaguchi, Japan
Current Conditions -  °F | °C
As of 1:00 AM on Monday 24 Nov 2014 (Local Time) from RJTT Reporting Station
Broken Clouds Broken Clouds  
Wind Chill: 55°   Ceiling: Unl
Heat Index: 55°   Visibility: 6mi
Dew Point: 45°   Wind: 12mph
Humidity: 67%   Direction: 20°NNE
Pressure: 30.21"   Gusts: NA
Location:  35.81°N, 139.73°E
Report Text: RJTT 231600Z 02010KT 9999 FEW030 SCT050 BKN/// 13/07 Q1023 NOSIG
Loading
Personal Weather Stations






























Interactive Weather Map New forecast layout! Learn more

10-Day Weather Forecast

Advertisements
Track Severe Weather on mobile